Time;durP1;ratioP1;P1;durP2;ratioP2;P2;SDS_P1;SDS_P2;PMS_P1;PMS_P2;Temp;Humidity;BMP_temperature;BMP_pressure;BME280_temperature;BME280_humidity;BME280_pressure;Samples;Min_cycle;Max_cycle;Signal;HPM_P1;HPM_P2
2022/06/30 00:00:33;;;;;;;16.52;5.95;;;13.60;99.90;;;;;;5050103;28;20025;-74
2022/06/30 00:03:00;;;;;;;8.88;5.38;;;13.60;99.90;;;;;;5060165;28;20028;-74
2022/06/30 00:05:28;;;;;;;12.18;4.50;;;13.60;99.90;;;;;;5052170;28;20025;-74
2022/06/30 00:07:56;;;;;;;8.52;4.43;;;13.60;99.90;;;;;;5051965;28;20025;-72
2022/06/30 00:10:23;;;;;;;5.03;3.45;;;13.60;99.90;;;;;;5050456;28;20082;-73
2022/06/30 00:12:50;;;;;;;8.00;3.78;;;13.60;99.90;;;;;;5036156;28;20021;-74
2022/06/30 00:15:18;;;;;;;7.97;3.33;;;13.60;99.90;;;;;;5032164;28;20029;-73
2022/06/30 00:17:45;;;;;;;5.80;4.10;;;13.50;99.90;;;;;;5032904;28;20018;-73
2022/06/30 00:20:12;;;;;;;8.80;4.10;;;13.50;99.90;;;;;;5036318;28;20021;-73
2022/06/30 00:22:40;;;;;;;8.27;3.80;;;13.40;99.90;;;;;;5038770;28;20017;-74
2022/06/30 00:25:07;;;;;;;6.85;4.30;;;13.40;99.90;;;;;;5030618;28;20031;-72
2022/06/30 00:27:35;;;;;;;6.60;3.67;;;13.40;99.90;;;;;;5027599;28;20075;-75
2022/06/30 00:30:02;;;;;;;7.57;3.80;;;13.50;99.90;;;;;;5031655;28;20028;-75
2022/06/30 00:32:29;;;;;;;6.60;2.88;;;13.60;99.90;;;;;;5042384;28;20111;-74
2022/06/30 00:34:58;;;;;;;7.25;2.60;;;13.70;99.90;;;;;;5048628;28;20488;-74
2022/06/30 00:37:25;;;;;;;5.55;3.15;;;13.70;99.90;;;;;;5035654;28;20033;-75
2022/06/30 00:39:52;;;;;;;3.80;2.67;;;13.90;99.90;;;;;;5030949;28;20489;-74
2022/06/30 00:42:20;;;;;;;5.80;2.70;;;14.00;99.90;;;;;;5057129;28;20037;-73
2022/06/30 00:44:47;;;;;;;13.43;3.15;;;14.10;99.90;;;;;;5039168;28;20013;-73
2022/06/30 00:47:14;;;;;;;7.70;2.95;;;14.20;99.90;;;;;;5040487;28;20030;-74
2022/06/30 00:49:42;;;;;;;4.72;2.60;;;14.30;99.90;;;;;;5031408;28;20037;-72
2022/06/30 00:52:11;;;;;;;4.20;2.47;;;14.40;99.90;;;;;;5043169;28;20478;-72
2022/06/30 00:54:40;;;;;;;3.28;2.28;;;14.60;99.80;;;;;;5049905;28;20398;-72
2022/06/30 00:57:10;;;;;;;7.72;2.30;;;14.70;99.60;;;;;;5040371;28;20379;-74
2022/06/30 00:59:41;;;;;;;5.07;2.83;;;14.90;99.10;;;;;;5031309;28;20462;-74
2022/06/30 01:02:09;;;;;;;7.70;2.85;;;15.00;98.40;;;;;;5043139;28;20124;-73
2022/06/30 01:04:40;;;;;;;4.72;2.30;;;15.10;98.30;;;;;;5010751;28;20037;-71
2022/06/30 01:07:08;;;;;;;7.28;2.55;;;15.20;98.20;;;;;;5053583;28;20021;-73
2022/06/30 01:15:07;;;;;;;5.70;2.03;;;15.30;97.60;;;;;;5030902;28;20549;-72
2022/06/30 01:17:35;;;;;;;3.78;2.65;;;15.30;97.70;;;;;;5035512;28;20025;-72
2022/06/30 01:20:03;;;;;;;6.28;2.45;;;15.50;97.70;;;;;;5050154;28;20572;-72
2022/06/30 01:22:30;;;;;;;2.95;1.52;;;15.60;97.40;;;;;;5035122;28;20123;-73
2022/06/30 01:24:57;;;;;;;3.90;1.50;;;15.70;97.30;;;;;;5050300;28;20023;-74
2022/06/30 01:27:25;;;;;;;2.20;1.50;;;15.80;97.20;;;;;;5037324;28;20082;-74
2022/06/30 01:29:52;;;;;;;2.50;1.63;;;16.00;96.80;;;;;;5031978;28;20051;-73
2022/06/30 01:32:20;;;;;;;5.88;2.03;;;16.00;96.50;;;;;;5045516;28;20024;-74
2022/06/30 01:34:48;;;;;;;5.10;1.70;;;16.10;96.30;;;;;;5029949;28;20030;-73
2022/06/30 01:37:15;;;;;;;4.97;1.33;;;16.20;96.30;;;;;;5031332;28;20067;-73
2022/06/30 01:39:42;;;;;;;3.60;1.40;;;16.20;95.50;;;;;;5030562;28;20606;-74
2022/06/30 01:42:10;;;;;;;3.67;1.40;;;16.20;95.70;;;;;;5023060;28;20124;-74
2022/06/30 01:44:37;;;;;;;3.60;1.38;;;16.30;95.50;;;;;;5044696;28;20032;-74
2022/06/30 01:47:05;;;;;;;4.38;1.27;;;16.30;95.50;;;;;;5050772;28;20028;-73
2022/06/30 01:49:32;;;;;;;3.47;1.58;;;16.40;96.00;;;;;;5049476;28;20454;-78
2022/06/30 01:52:00;;;;;;;5.95;1.85;;;16.40;95.60;;;;;;5031925;28;20029;-74
2022/06/30 01:54:27;;;;;;;3.78;2.00;;;16.40;95.30;;;;;;5029204;28;20018;-74
2022/06/30 01:56:54;;;;;;;2.63;1.30;;;16.40;95.30;;;;;;5030033;28;20103;-73
2022/06/30 01:59:22;;;;;;;3.05;1.58;;;16.50;95.00;;;;;;5040086;28;20025;-74
2022/06/30 02:01:49;;;;;;;4.05;1.70;;;16.70;95.10;;;;;;5045045;28;20029;-73
2022/06/30 02:07:02;;;;;;;6.28;1.63;;;17.40;94.70;;;;;;5044825;28;20063;-74
2022/06/30 02:09:29;;;;;;;4.68;1.50;;;17.60;93.80;;;;;;5059386;28;20060;-73
2022/06/30 02:14:42;;;;;;;5.32;1.48;;;17.60;93.20;;;;;;5039980;28;20500;-73
2022/06/30 02:17:09;;;;;;;2.60;1.30;;;17.50;93.30;;;;;;5049869;28;20037;-72
2022/06/30 02:19:36;;;;;;;4.53;1.25;;;17.50;93.40;;;;;;5086464;28;20533;-72
2022/06/30 02:22:04;;;;;;;3.10;1.27;;;17.40;93.80;;;;;;5048031;28;20032;-72
2022/06/30 02:24:31;;;;;;;2.58;1.27;;;17.40;93.70;;;;;;5032916;28;20052;-72
2022/06/30 02:26:59;;;;;;;4.25;1.50;;;17.40;93.60;;;;;;5056988;28;20037;-72
2022/06/30 02:29:26;;;;;;;4.03;1.10;;;17.30;93.70;;;;;;5041570;28;20381;-73
2022/06/30 02:31:53;;;;;;;3.03;1.73;;;17.40;93.90;;;;;;5054729;28;20021;-73
2022/06/30 02:34:21;;;;;;;4.32;1.50;;;17.60;94.10;;;;;;5054540;28;20107;-72
2022/06/30 02:36:48;;;;;;;1.80;1.40;;;17.80;93.60;;;;;;5040136;28;20521;-71
2022/06/30 02:39:15;;;;;;;3.35;1.42;;;17.80;93.10;;;;;;5032968;28;20070;-73
2022/06/30 02:41:43;;;;;;;4.68;1.50;;;17.80;92.90;;;;;;5033367;28;20029;-72
2022/06/30 02:44:10;;;;;;;3.80;1.58;;;17.70;92.60;;;;;;5038922;28;20424;-72
2022/06/30 02:46:38;;;;;;;3.95;1.60;;;17.60;92.90;;;;;;5049359;28;20037;-72
2022/06/30 02:49:05;;;;;;;4.53;1.88;;;17.50;92.90;;;;;;5053825;28;20024;-75
2022/06/30 02:51:32;;;;;;;3.30;1.20;;;17.70;92.80;;;;;;5041057;28;20029;-73
2022/06/30 02:54:00;;;;;;;3.28;1.35;;;17.70;92.80;;;;;;5030295;28;20021;-71
2022/06/30 02:56:27;;;;;;;3.15;1.25;;;17.70;92.50;;;;;;5034457;28;20049;-69
2022/06/30 02:58:55;;;;;;;2.97;1.10;;;17.70;92.40;;;;;;5034346;28;20022;-72
2022/06/30 03:01:23;;;;;;;2.42;1.30;;;17.70;92.50;;;;;;5034323;28;20032;-73
2022/06/30 03:03:50;;;;;;;3.60;1.35;;;17.70;92.70;;;;;;5034425;28;20025;-72
2022/06/30 03:06:17;;;;;;;1.85;1.10;;;17.70;92.60;;;;;;5034057;28;20104;-73
2022/06/30 03:08:45;;;;;;;3.55;1.15;;;17.70;92.90;;;;;;5032474;28;20492;-74
2022/06/30 03:11:18;;;;;;;4.05;1.50;;;17.80;92.90;;;;;;5033452;28;20025;-72
2022/06/30 03:13:45;;;;;;;2.40;1.20;;;17.80;93.00;;;;;;5033260;28;20018;-73
2022/06/30 03:16:13;;;;;;;3.20;1.10;;;17.80;92.90;;;;;;5033683;28;20421;-73
2022/06/30 03:18:41;;;;;;;4.65;1.95;;;17.80;92.70;;;;;;5033731;28;20104;-73
2022/06/30 03:21:09;;;;;;;3.75;2.42;;;17.70;92.90;;;;;;5033704;28;20033;-72
2022/06/30 03:23:36;;;;;;;5.68;2.05;;;17.70;93.10;;;;;;5038082;28;20022;-74
2022/06/30 03:26:04;;;;;;;3.92;1.60;;;17.60;93.40;;;;;;5047483;28;20024;-73
2022/06/30 03:28:32;;;;;;;2.85;1.20;;;17.60;93.50;;;;;;5053076;28;20104;-72
2022/06/30 03:31:00;;;;;;;3.92;1.10;;;17.50;93.60;;;;;;5053063;28;20041;-74
2022/06/30 03:33:27;;;;;;;3.55;1.20;;;17.40;94.00;;;;;;5046677;28;20025;-72
2022/06/30 03:35:55;;;;;;;3.67;1.50;;;17.40;94.10;;;;;;5032720;28;20111;-73
2022/06/30 03:38:22;;;;;;;6.05;2.70;;;17.40;94.30;;;;;;5032781;28;20057;-73
2022/06/30 03:40:50;;;;;;;2.67;1.60;;;17.30;94.20;;;;;;5015550;28;20028;-74
2022/06/30 03:43:18;;;;;;;5.15;1.73;;;17.30;94.30;;;;;;5033909;28;20091;-74
2022/06/30 03:45:45;;;;;;;4.30;2.15;;;17.30;94.70;;;;;;5026148;28;20033;-74
2022/06/30 03:48:13;;;;;;;3.28;1.30;;;17.40;94.60;;;;;;5039973;28;20056;-73
2022/06/30 03:50:40;;;;;;;5.82;1.27;;;17.40;94.40;;;;;;5032604;28;20104;-73
2022/06/30 03:53:09;;;;;;;4.00;1.48;;;17.40;94.30;;;;;;5033937;28;20033;-74
2022/06/30 03:55:39;;;;;;;5.25;1.50;;;17.30;94.20;;;;;;5016036;28;20045;-72
2022/06/30 03:58:09;;;;;;;4.65;1.60;;;17.30;94.40;;;;;;5029422;28;20203;-73
2022/06/30 04:00:38;;;;;;;5.10;1.60;;;17.30;94.20;;;;;;5023121;28;20025;-73
2022/06/30 04:03:05;;;;;;;4.28;1.30;;;17.30;94.30;;;;;;5028565;28;20021;-73
2022/06/30 04:05:32;;;;;;;3.85;1.45;;;17.30;94.20;;;;;;5039891;28;20159;-73
2022/06/30 04:08:00;;;;;;;4.05;1.42;;;17.30;94.00;;;;;;5031959;28;20017;-72
2022/06/30 04:10:27;;;;;;;3.42;1.10;;;17.30;93.70;;;;;;5036218;28;20025;-74
2022/06/30 04:12:54;;;;;;;2.97;0.93;;;17.30;93.50;;;;;;5032652;28;20089;-72
2022/06/30 04:15:22;;;;;;;2.50;1.20;;;17.30;93.20;;;;;;5045600;28;20033;-73
2022/06/30 04:17:49;;;;;;;4.57;1.10;;;17.30;92.70;;;;;;5033586;28;20026;-72
2022/06/30 04:20:17;;;;;;;3.53;1.10;;;17.40;92.70;;;;;;5031147;28;20063;-72
2022/06/30 04:22:48;;;;;;;2.90;1.13;;;17.40;92.10;;;;;;5037192;28;20505;-71
2022/06/30 04:25:16;;;;;;;3.25;1.10;;;17.40;92.00;;;;;;5042315;28;20087;-73
2022/06/30 04:27:44;;;;;;;3.88;1.10;;;17.40;92.00;;;;;;5031621;28;20371;-74
2022/06/30 04:30:12;;;;;;;2.28;0.80;;;17.40;91.90;;;;;;5031835;28;20025;-72
2022/06/30 04:32:41;;;;;;;4.00;1.05;;;17.30;92.20;;;;;;5031427;28;20021;-71
2022/06/30 04:35:11;;;;;;;1.55;0.90;;;17.30;91.80;;;;;;5039990;28;20600;-72
2022/06/30 04:37:39;;;;;;;2.60;1.10;;;17.30;91.80;;;;;;5049856;28;20028;-73
2022/06/30 04:42:53;;;;;;;2.42;1.02;;;17.10;91.80;;;;;;5030373;28;20044;-72
2022/06/30 04:45:20;;;;;;;3.65;0.98;;;17.00;91.40;;;;;;5044024;28;21018;-73
2022/06/30 04:47:47;;;;;;;4.88;0.90;;;17.00;91.60;;;;;;5032093;28;20382;-74
2022/06/30 04:50:14;;;;;;;4.93;1.70;;;16.90;91.40;;;;;;5042271;28;20021;-74
2022/06/30 04:52:42;;;;;;;4.43;1.08;;;16.90;91.50;;;;;;5033081;28;20079;-73
2022/06/30 04:55:09;;;;;;;3.25;1.00;;;16.80;91.70;;;;;;5039180;28;20033;-74
2022/06/30 04:57:37;;;;;;;3.10;1.20;;;16.80;91.80;;;;;;5044163;28;20033;-73
2022/06/30 05:00:06;;;;;;;3.17;1.08;;;16.70;92.00;;;;;;5043568;28;20484;-71
2022/06/30 05:02:33;;;;;;;2.13;1.00;;;16.80;92.10;;;;;;5050311;28;20107;-72
2022/06/30 05:05:00;;;;;;;3.75;1.48;;;16.80;92.40;;;;;;5050535;28;20049;-72
2022/06/30 05:07:28;;;;;;;2.78;0.98;;;16.80;92.20;;;;;;5029963;28;20026;-72
2022/06/30 05:09:56;;;;;;;4.68;2.35;;;16.80;92.20;;;;;;5029524;28;20108;-72
2022/06/30 05:12:23;;;;;;;2.55;1.10;;;16.80;92.30;;;;;;5032330;28;20505;-73
2022/06/30 05:14:50;;;;;;;4.32;1.30;;;16.70;92.10;;;;;;5049133;28;20031;-73
2022/06/30 05:17:18;;;;;;;2.95;1.30;;;16.70;92.20;;;;;;5029573;28;20025;-74
2022/06/30 05:19:45;;;;;;;3.08;1.60;;;16.70;92.30;;;;;;5028935;28;20097;-74
2022/06/30 05:22:12;;;;;;;4.38;1.65;;;16.70;92.40;;;;;;5030678;28;20025;-73
2022/06/30 05:27:25;;;;;;;5.20;2.03;;;16.70;92.40;;;;;;5031100;28;20036;-72
2022/06/30 05:29:52;;;;;;;2.33;1.42;;;16.70;92.20;;;;;;5030698;28;20395;-72
2022/06/30 05:32:19;;;;;;;3.35;1.88;;;16.70;92.30;;;;;;5029932;28;20027;-72
2022/06/30 05:34:46;;;;;;;5.55;1.70;;;16.70;92.40;;;;;;5030925;28;20022;-73
2022/06/30 05:37:14;;;;;;;2.10;1.10;;;16.70;92.10;;;;;;5038231;28;20099;-71
2022/06/30 05:39:41;;;;;;;2.47;1.40;;;16.60;91.70;;;;;;5051002;28;20019;-71
2022/06/30 05:42:08;;;;;;;2.75;1.20;;;16.60;91.40;;;;;;5050287;28;20112;-73
2022/06/30 05:44:36;;;;;;;2.67;1.42;;;16.50;91.40;;;;;;5050679;28;20583;-72
2022/06/30 05:47:03;;;;;;;3.17;1.30;;;16.50;91.30;;;;;;5034036;28;20028;-72
2022/06/30 05:49:30;;;;;;;1.65;0.93;;;16.40;91.30;;;;;;5041029;28;20029;-72
2022/06/30 05:51:58;;;;;;;3.58;1.25;;;16.40;91.20;;;;;;5050728;28;20051;-75
2022/06/30 05:54:25;;;;;;;2.83;1.10;;;16.30;91.30;;;;;;5045165;28;20466;-72
2022/06/30 05:56:52;;;;;;;5.05;1.40;;;16.30;90.80;;;;;;5031745;28;20089;-75
2022/06/30 05:59:20;;;;;;;2.45;1.38;;;16.20;90.70;;;;;;5033289;28;20096;-73
2022/06/30 06:01:47;;;;;;;4.07;1.40;;;16.20;90.60;;;;;;5043626;28;20021;-73
2022/06/30 06:04:14;;;;;;;2.65;1.00;;;16.10;90.30;;;;;;5052201;28;20089;-74
2022/06/30 06:06:41;;;;;;;2.10;1.48;;;16.10;90.00;;;;;;5037671;28;20044;-72
2022/06/30 06:09:09;;;;;;;3.28;1.50;;;16.10;90.00;;;;;;5031445;28;20064;-72
2022/06/30 06:11:36;;;;;;;2.35;1.30;;;16.00;90.00;;;;;;5030728;28;20105;-72
2022/06/30 06:14:03;;;;;;;5.13;1.88;;;16.00;89.80;;;;;;5043078;28;20028;-73
2022/06/30 06:16:31;;;;;;;5.53;1.48;;;15.90;90.00;;;;;;5037982;28;20131;-73
2022/06/30 06:18:58;;;;;;;5.88;3.50;;;15.80;90.10;;;;;;5031496;28;20033;-72
2022/06/30 06:21:28;;;;;;;13.13;6.60;;;15.90;90.10;;;;;;5010830;28;20032;-70
2022/06/30 06:23:55;;;;;;;4.75;2.65;;;15.80;90.00;;;;;;5058775;28;20022;-72
2022/06/30 06:26:23;;;;;;;3.70;2.65;;;15.80;89.20;;;;;;5033306;28;20036;-73
2022/06/30 06:31:40;;;;;;;4.97;2.28;;;15.70;90.20;;;;;;5049998;28;20095;-74
2022/06/30 06:34:07;;;;;;;3.13;1.57;;;15.60;89.60;;;;;;5048886;28;20025;-74
2022/06/30 06:36:35;;;;;;;3.90;1.77;;;15.50;89.80;;;;;;5050542;28;20175;-74
2022/06/30 06:39:03;;;;;;;7.55;2.20;;;15.40;90.00;;;;;;5048562;28;20037;-73
2022/06/30 06:41:30;;;;;;;5.95;2.17;;;15.40;90.30;;;;;;5030766;28;20022;-75
2022/06/30 06:43:57;;;;;;;3.33;1.60;;;15.20;90.10;;;;;;5028413;28;20040;-75
2022/06/30 06:46:28;;;;;;;2.20;1.20;;;15.20;89.80;;;;;;5045984;28;20433;-73
2022/06/30 06:49:04;;;;;;;5.28;1.33;;;15.10;89.90;;;;;;5042622;28;20055;-75
2022/06/30 06:51:32;;;;;;;2.95;1.27;;;15.00;90.10;;;;;;5065378;28;20037;-73
2022/06/30 06:53:59;;;;;;;4.53;1.90;;;15.00;90.40;;;;;;5050187;28;20021;-74
2022/06/30 06:56:27;;;;;;;5.43;2.00;;;15.00;90.20;;;;;;5045951;28;20401;-75
2022/06/30 06:58:57;;;;;;;4.93;2.03;;;14.90;90.50;;;;;;5050494;28;20124;-73
2022/06/30 07:01:24;;;;;;;6.57;3.40;;;14.90;90.50;;;;;;5043734;28;20029;-71
2022/06/30 07:03:52;;;;;;;3.75;2.03;;;14.90;90.50;;;;;;5035425;28;20018;-73
2022/06/30 07:06:19;;;;;;;12.15;7.68;;;14.90;90.60;;;;;;5033941;28;20478;-73
2022/06/30 07:08:46;;;;;;;13.55;7.47;;;14.80;90.70;;;;;;5033875;28;20036;-72
2022/06/30 07:11:13;;;;;;;5.00;2.67;;;14.80;90.80;;;;;;5031431;28;20044;-72
2022/06/30 07:13:41;;;;;;;4.05;2.35;;;14.80;90.50;;;;;;5043000;28;20108;-73
2022/06/30 07:16:08;;;;;;;3.72;2.55;;;14.70;90.50;;;;;;5053840;28;20025;-71
2022/06/30 07:18:35;;;;;;;4.65;2.15;;;14.70;90.50;;;;;;5069395;28;20025;-72
2022/06/30 07:21:03;;;;;;;6.35;2.60;;;14.70;90.60;;;;;;5037035;28;20040;-73
2022/06/30 07:23:31;;;;;;;4.97;2.78;;;14.70;90.60;;;;;;5041993;28;20385;-72
2022/06/30 07:25:58;;;;;;;5.68;3.40;;;14.70;90.90;;;;;;5058885;28;20047;-72
2022/06/30 07:28:26;;;;;;;6.60;3.10;;;14.70;91.20;;;;;;5044846;28;20069;-73
2022/06/30 07:30:54;;;;;;;8.85;3.55;;;14.70;91.60;;;;;;5024777;28;20036;-73
2022/06/30 07:33:21;;;;;;;5.05;3.47;;;14.60;91.90;;;;;;5028399;28;20097;-72
2022/06/30 07:35:48;;;;;;;6.40;3.72;;;14.60;92.60;;;;;;5020728;28;20479;-72
2022/06/30 07:38:15;;;;;;;5.55;3.97;;;14.50;92.70;;;;;;5036116;28;20462;-73
2022/06/30 07:40:43;;;;;;;6.78;4.88;;;14.50;93.10;;;;;;5037206;28;20048;-72
2022/06/30 07:43:11;;;;;;;6.40;4.20;;;14.50;92.70;;;;;;5041591;28;20029;-72
2022/06/30 07:45:39;;;;;;;6.15;4.10;;;14.50;92.70;;;;;;5052095;28;20363;-73
2022/06/30 07:48:06;;;;;;;5.72;3.63;;;14.40;92.70;;;;;;5033920;28;20378;-78
2022/06/30 07:50:33;;;;;;;4.82;3.25;;;14.40;92.70;;;;;;5068062;28;20428;-74
2022/06/30 07:53:01;;;;;;;17.08;12.30;;;14.30;92.90;;;;;;5042055;28;20193;-76
2022/06/30 07:55:29;;;;;;;27.02;18.60;;;14.30;92.90;;;;;;5047671;28;20076;-73
2022/06/30 07:58:02;;;;;;;13.45;10.13;;;14.30;92.90;;;;;;5041926;28;20029;-76
2022/06/30 08:00:29;;;;;;;6.53;3.38;;;14.30;93.00;;;;;;5052918;28;20017;-73
2022/06/30 08:02:56;;;;;;;5.95;3.20;;;14.20;93.20;;;;;;5050350;28;20025;-70
2022/06/30 08:05:24;;;;;;;4.40;2.50;;;14.20;93.50;;;;;;5052871;28;20155;-71
2022/06/30 08:07:51;;;;;;;8.38;4.60;;;14.20;93.50;;;;;;5052443;28;20367;-72
2022/06/30 08:10:18;;;;;;;9.40;4.40;;;14.10;93.70;;;;;;5052853;28;20496;-71
2022/06/30 08:12:46;;;;;;;4.82;2.20;;;14.10;93.90;;;;;;5045003;28;20028;-72
2022/06/30 08:15:13;;;;;;;5.40;2.75;;;14.10;94.10;;;;;;5038865;28;20025;-76
2022/06/30 08:17:40;;;;;;;5.85;2.75;;;14.00;94.60;;;;;;5032206;28;20021;-76
2022/06/30 08:20:08;;;;;;;4.80;3.03;;;14.00;95.10;;;;;;5033012;28;20029;-73
2022/06/30 08:22:35;;;;;;;4.10;2.63;;;14.00;95.20;;;;;;5041799;28;20060;-76
2022/06/30 08:25:03;;;;;;;7.18;2.67;;;13.90;95.50;;;;;;5035059;28;20025;-72
2022/06/30 08:27:31;;;;;;;5.15;3.03;;;13.90;95.80;;;;;;5031759;28;20486;-72
2022/06/30 08:29:58;;;;;;;5.78;3.40;;;13.80;95.90;;;;;;5044967;28;20055;-72
2022/06/30 08:32:28;;;;;;;5.80;3.13;;;13.80;96.00;;;;;;5039240;28;20025;-73
2022/06/30 08:34:55;;;;;;;7.32;3.85;;;13.70;96.30;;;;;;5042884;28;20124;-74
2022/06/30 08:37:26;;;;;;;5.80;3.13;;;13.80;96.60;;;;;;5040764;28;20095;-73
2022/06/30 08:42:41;;;;;;;5.15;3.55;;;13.70;96.80;;;;;;5040095;28;20119;-74
2022/06/30 08:45:19;;;;;;;5.90;4.15;;;13.70;96.60;;;;;;5031007;28;20025;-74
2022/06/30 08:47:47;;;;;;;7.38;4.03;;;13.60;96.80;;;;;;5022515;28;20394;-74
2022/06/30 08:50:17;;;;;;;7.35;3.53;;;13.50;97.20;;;;;;5030316;28;20434;-71
2022/06/30 08:52:52;;;;;;;6.45;3.33;;;13.50;97.40;;;;;;5017729;28;20230;-74
2022/06/30 08:55:35;;;;;;;17.58;9.75;;;13.50;97.30;;;;;;5030943;28;20081;-76
2022/06/30 08:58:06;;;;;;;12.65;8.93;;;13.50;97.10;;;;;;5041175;28;20029;-72
2022/06/30 09:00:39;;;;;;;13.65;9.07;;;13.40;97.30;;;;;;5049108;28;20040;-76
2022/06/30 09:03:07;;;;;;;14.15;10.38;;;13.40;97.70;;;;;;5033241;28;20035;-76
2022/06/30 09:05:35;;;;;;;16.77;11.20;;;13.40;97.70;;;;;;5051781;28;20017;-75
2022/06/30 09:08:02;;;;;;;17.25;10.38;;;13.40;97.70;;;;;;5050355;28;20032;-75
2022/06/30 09:10:29;;;;;;;16.85;9.25;;;13.30;97.80;;;;;;5043622;28;20029;-74
2022/06/30 09:13:02;;;;;;;27.40;13.15;;;13.20;97.80;;;;;;5028616;28;20029;-75
2022/06/30 09:15:37;;;;;;;22.65;11.73;;;13.30;98.10;;;;;;5047577;28;20036;-79
2022/06/30 09:18:06;;;;;;;14.55;8.63;;;13.20;97.90;;;;;;5051606;28;20139;-73
2022/06/30 09:20:39;;;;;;;13.63;8.02;;;13.20;97.90;;;;;;5034864;28;20025;-73
2022/06/30 09:23:27;;;;;;;12.93;7.22;;;13.20;98.20;;;;;;5029645;28;20075;-73
2022/06/30 09:26:02;;;;;;;10.68;6.32;;;13.20;98.50;;;;;;5034416;28;20500;-74
2022/06/30 09:28:57;;;;;;;10.27;7.78;;;13.20;98.30;;;;;;5051619;28;20398;-74
2022/06/30 09:31:42;;;;;;;10.38;6.90;;;13.10;98.20;;;;;;5033158;28;20101;-75
2022/06/30 09:34:26;;;;;;;8.48;7.05;;;13.10;98.20;;;;;;5033387;28;20017;-74
2022/06/30 09:36:54;;;;;;;10.20;7.53;;;13.00;98.00;;;;;;5034682;28;20120;-73
2022/06/30 09:39:22;;;;;;;15.02;9.88;;;13.10;98.10;;;;;;5045558;28;20025;-72
2022/06/30 09:41:53;;;;;;;16.83;12.18;;;13.10;98.20;;;;;;5043467;28;20053;-73
2022/06/30 09:44:23;;;;;;;16.60;12.38;;;13.10;98.10;;;;;;5050863;28;20512;-73
2022/06/30 09:47:08;;;;;;;18.52;13.48;;;13.00;98.30;;;;;;5051469;28;20033;-76
2022/06/30 09:49:39;;;;;;;17.42;12.27;;;13.00;98.60;;;;;;5053140;28;20025;-73
2022/06/30 09:52:21;;;;;;;14.10;7.90;;;13.00;98.60;;;;;;5043557;28;20095;-78
2022/06/30 09:55:08;;;;;;;11.52;7.00;;;13.00;98.50;;;;;;5050685;28;20024;-78
2022/06/30 09:57:42;;;;;;;8.32;6.78;;;13.00;98.60;;;;;;5049273;28;20048;-73
2022/06/30 10:00:14;;;;;;;11.93;7.97;;;13.00;98.70;;;;;;5066078;28;20086;-75
2022/06/30 10:02:45;;;;;;;9.55;6.40;;;13.10;98.90;;;;;;5041110;28;20497;-74
2022/06/30 10:05:17;;;;;;;9.95;7.18;;;13.00;99.20;;;;;;5050479;28;20093;-76
2022/06/30 10:07:46;;;;;;;9.27;6.95;;;13.00;99.50;;;;;;5050985;28;20025;-73
2022/06/30 10:10:15;;;;;;;10.60;6.53;;;13.00;99.30;;;;;;5050572;28;20028;-73
2022/06/30 10:12:45;;;;;;;10.55;6.15;;;13.00;99.40;;;;;;5040679;28;20025;-74
2022/06/30 10:15:14;;;;;;;8.13;6.30;;;13.00;99.70;;;;;;5066493;28;20028;-74
2022/06/30 10:17:52;;;;;;;10.50;6.78;;;12.90;99.80;;;;;;5051463;28;20032;-71
2022/06/30 10:20:20;;;;;;;7.95;6.18;;;12.90;99.90;;;;;;5050610;28;20044;-74
2022/06/30 10:22:49;;;;;;;9.70;6.32;;;12.90;99.90;;;;;;5040858;28;20102;-74
2022/06/30 10:25:17;;;;;;;9.07;6.35;;;12.90;99.90;;;;;;5049438;28;20055;-74
2022/06/30 10:27:47;;;;;;;10.25;6.47;;;12.90;99.90;;;;;;5050352;28;20535;-73
2022/06/30 10:30:21;;;;;;;9.57;6.93;;;12.80;99.90;;;;;;5050783;28;20163;-72
2022/06/30 10:33:13;;;;;;;13.38;7.05;;;12.80;99.90;;;;;;5040454;28;20071;-75
2022/06/30 10:35:46;;;;;;;11.27;6.17;;;12.80;99.90;;;;;;5050814;28;20060;-74
2022/06/30 10:38:33;;;;;;;8.57;5.65;;;12.80;99.90;;;;;;5052796;28;20473;-72
2022/06/30 10:41:12;;;;;;;10.65;6.32;;;12.70;99.90;;;;;;5065432;28;20121;-76
2022/06/30 10:44:03;;;;;;;11.77;6.25;;;12.80;99.90;;;;;;5048404;28;20496;-74
2022/06/30 10:46:35;;;;;;;8.57;5.50;;;12.70;99.90;;;;;;5054236;28;20477;-74
2022/06/30 10:49:11;;;;;;;10.38;7.00;;;12.70;99.90;;;;;;5054686;28;20029;-73
2022/06/30 10:51:39;;;;;;;9.90;5.93;;;12.70;99.90;;;;;;5051666;28;20502;-75
2022/06/30 10:54:08;;;;;;;10.25;7.18;;;12.70;99.90;;;;;;5054151;28;20021;-76
2022/06/30 10:56:53;;;;;;;13.05;7.07;;;12.70;99.90;;;;;;5052618;28;20076;-74
2022/06/30 10:59:34;;;;;;;10.45;7.05;;;12.70;99.90;;;;;;5050506;28;20056;-76
2022/06/30 11:02:14;;;;;;;9.40;6.80;;;12.60;99.90;;;;;;5021849;28;20056;-73
2022/06/30 11:04:49;;;;;;;10.10;7.57;;;12.70;99.90;;;;;;5054636;28;20032;-74
2022/06/30 11:07:24;;;;;;;13.23;8.85;;;12.70;99.90;;;;;;5066737;28;20025;-75
2022/06/30 11:09:57;;;;;;;9.55;7.72;;;12.70;99.90;;;;;;5054343;28;20079;-75
2022/06/30 11:12:47;;;;;;;11.50;7.47;;;12.70;99.90;;;;;;5050123;28;20453;-74
2022/06/30 11:15:15;;;;;;;12.48;6.88;;;12.70;99.90;;;;;;5021484;28;20073;-77
2022/06/30 11:17:42;;;;;;;13.77;8.88;;;12.70;99.90;;;;;;5035630;28;20037;-76
2022/06/30 11:20:13;;;;;;;18.90;9.68;;;12.80;99.90;;;;;;5053341;28;20029;-76
2022/06/30 11:22:42;;;;;;;15.35;8.82;;;12.80;99.90;;;;;;5069356;28;20082;-77
2022/06/30 11:27:17;;;;;;;18.08;8.23;;;12.80;99.90;;;;;;5036162;28;20014;-77
2022/06/30 11:28:05;;;;;;;11.77;6.50;;;12.80;99.90;;;;;;5030247;28;20084;-76
2022/06/30 11:30:35;;;;;;;9.43;6.68;;;12.80;99.90;;;;;;5038254;22;20042;-77
2022/06/30 11:33:03;;;;;;;8.10;5.40;;;12.80;99.90;;;;;;4992824;28;21777;-76
2022/06/30 11:35:31;;;;;;;7.78;4.75;;;12.80;99.90;;;;;;4988830;28;20034;-73
2022/06/30 11:37:59;;;;;;;10.50;4.78;;;12.80;99.90;;;;;;4991301;28;20023;-73
2022/06/30 11:40:36;;;;;;;8.30;4.68;;;12.80;99.90;;;;;;4974616;28;20018;-74
2022/06/30 11:43:21;;;;;;;9.48;5.53;;;12.90;99.90;;;;;;4970522;28;20027;-74
2022/06/30 11:45:48;;;;;;;9.32;5.00;;;12.80;99.90;;;;;;4964043;28;20048;-77
2022/06/30 11:48:19;;;;;;;7.40;4.07;;;12.80;99.90;;;;;;4969601;28;20026;-75
2022/06/30 11:50:46;;;;;;;7.07;3.83;;;12.80;99.90;;;;;;4965716;28;20156;-73
2022/06/30 11:53:14;;;;;;;7.30;4.28;;;12.70;99.90;;;;;;4968816;28;20375;-74
2022/06/30 11:55:53;;;;;;;6.07;3.90;;;12.80;99.90;;;;;;4958335;28;20058;-76
2022/06/30 11:58:28;;;;;;;6.72;4.25;;;12.70;99.90;;;;;;4958764;28;20043;-74
2022/06/30 12:00:56;;;;;;;5.70;4.80;;;12.70;99.90;;;;;;4971750;28;20027;-74
2022/06/30 12:03:26;;;;;;;10.55;4.20;;;12.60;99.90;;;;;;4971197;28;20377;-75
2022/06/30 12:05:57;;;;;;;6.40;4.32;;;12.60;99.90;;;;;;4960111;28;20042;-75
2022/06/30 12:08:26;;;;;;;8.10;4.55;;;12.60;99.90;;;;;;4971650;28;20417;-75
2022/06/30 12:10:56;;;;;;;6.60;4.70;;;12.60;99.90;;;;;;4973893;28;20058;-75
2022/06/30 12:13:27;;;;;;;10.13;4.65;;;12.60;99.90;;;;;;4974383;28;20484;-74
2022/06/30 12:15:55;;;;;;;6.47;4.20;;;12.60;99.90;;;;;;4973563;28;20027;-75
2022/06/30 12:18:25;;;;;;;6.53;4.47;;;12.50;99.90;;;;;;4970407;28;20022;-74
2022/06/30 12:20:53;;;;;;;8.80;5.28;;;12.50;99.90;;;;;;4964754;28;20484;-74
2022/06/30 12:23:24;;;;;;;7.38;4.47;;;12.50;99.90;;;;;;4963984;28;20106;-75
2022/06/30 12:25:51;;;;;;;8.50;4.57;;;12.40;99.90;;;;;;4963846;28;20101;-75
2022/06/30 12:28:19;;;;;;;6.88;4.90;;;12.40;99.90;;;;;;4961323;28;20045;-74
2022/06/30 12:30:50;;;;;;;6.10;4.45;;;12.40;99.90;;;;;;4954669;28;20047;-74
2022/06/30 12:33:17;;;;;;;9.00;4.50;;;12.30;99.90;;;;;;4955912;28;20081;-76
2022/06/30 12:35:44;;;;;;;7.38;4.97;;;12.30;99.90;;;;;;4967598;28;20027;-75
2022/06/30 12:38:14;;;;;;;7.22;4.70;;;12.40;99.90;;;;;;4973219;28;20035;-75
2022/06/30 12:40:42;;;;;;;7.38;4.70;;;12.40;99.90;;;;;;4974162;28;20430;-73
2022/06/30 12:43:10;;;;;;;5.97;4.80;;;12.30;99.90;;;;;;4974174;28;20408;-74
2022/06/30 12:45:49;;;;;;;6.53;4.68;;;12.30;99.90;;;;;;4974034;28;20033;-73
2022/06/30 12:48:48;;;;;;;8.32;5.50;;;12.30;99.90;;;;;;4973818;28;20049;-74
2022/06/30 12:51:35;;;;;;;9.63;4.93;;;12.30;99.90;;;;;;4972591;28;20030;-77
2022/06/30 12:54:26;;;;;;;7.72;4.85;;;12.30;99.90;;;;;;4973396;28;20026;-75
2022/06/30 12:57:03;;;;;;;6.75;4.03;;;12.20;99.90;;;;;;4973296;28;20127;-74
2022/06/30 12:59:30;;;;;;;6.35;3.58;;;12.20;99.90;;;;;;4954546;28;20027;-75
2022/06/30 13:02:01;;;;;;;6.43;3.83;;;12.20;99.90;;;;;;4953466;28;20081;-75
2022/06/30 13:04:31;;;;;;;7.90;3.45;;;12.20;99.90;;;;;;4972824;28;20388;-74
2022/06/30 13:07:00;;;;;;;5.45;3.92;;;12.20;99.90;;;;;;4973432;28;20023;-74
2022/06/30 13:09:35;;;;;;;6.20;3.90;;;12.30;99.90;;;;;;4973224;28;20031;-74
2022/06/30 13:12:04;;;;;;;6.18;3.58;;;12.30;99.90;;;;;;4973729;28;20027;-73
2022/06/30 13:14:33;;;;;;;6.65;4.07;;;12.30;99.90;;;;;;4974023;28;20026;-76
2022/06/30 13:17:01;;;;;;;10.65;4.70;;;12.30;99.90;;;;;;4973857;28;20066;-75
2022/06/30 13:19:30;;;;;;;10.98;3.78;;;12.20;99.90;;;;;;4973259;28;20023;-74